Time;durP1;ratioP1;P1;durP2;ratioP2;P2;SDS_P1;SDS_P2;PMS_P1;PMS_P2;Temp;Humidity;BMP_temperature;BMP_pressure;BME280_temperature;BME280_humidity;BME280_pressure;Samples;Min_cycle;Max_cycle;Signal;HPM_P1;HPM_P2
2024/04/26 00:01:42;;;;;;;6.13;1.35;;;;;;;-141.50;100.00;63355.56;5329002;26;19997;-78
2024/04/26 00:04:10;;;;;;;4.57;1.67;;;;;;;-141.50;100.00;63355.56;5361880;26;20000;-81
2024/04/26 00:06:42;;;;;;;5.10;1.60;;;;;;;-141.50;100.00;63355.56;5343819;26;20005;-82
2024/04/26 00:09:09;;;;;;;4.28;1.30;;;;;;;-141.50;100.00;63355.56;5375947;26;19996;-83
2024/04/26 00:11:39;;;;;;;5.00;1.58;;;;;;;-141.50;100.00;63355.56;5369404;26;20485;-79
2024/04/26 00:14:07;;;;;;;5.30;1.55;;;;;;;-141.50;100.00;63355.56;5372046;26;20048;-82
2024/04/26 00:16:41;;;;;;;3.67;1.50;;;;;;;-141.50;100.00;63355.56;5369121;26;20023;-82
2024/04/26 00:19:09;;;;;;;6.78;1.40;;;;;;;-141.50;100.00;63355.56;5377244;26;19996;-83
2024/04/26 00:21:45;;;;;;;2.72;1.33;;;;;;;-141.50;100.00;63355.56;5362099;26;20012;-83
2024/04/26 00:24:19;;;;;;;3.85;1.40;;;;;;;-141.50;100.00;63355.56;5348058;26;20004;-80
2024/04/26 00:26:48;;;;;;;3.55;1.33;;;;;;;-141.50;100.00;63355.56;5376315;26;20084;-80
2024/04/26 00:29:18;;;;;;;3.55;1.30;;;;;;;-141.50;100.00;63355.56;5376090;26;20027;-83
2024/04/26 00:31:46;;;;;;;3.88;1.23;;;;;;;-141.50;100.00;63355.56;5349321;26;20021;-81
2024/04/26 00:34:13;;;;;;;3.05;1.60;;;;;;;-141.50;100.00;63355.56;5354621;26;20038;-80
2024/04/26 00:36:40;;;;;;;2.72;1.15;;;;;;;-141.50;100.00;63355.56;5378215;26;20004;-82
2024/04/26 00:39:08;;;;;;;2.95;0.98;;;;;;;-141.50;100.00;63355.56;5361382;26;20011;-82
2024/04/26 00:41:35;;;;;;;2.40;1.30;;;;;;;-141.50;100.00;63355.56;5335616;26;20004;-83
2024/04/26 00:44:11;;;;;;;2.58;1.33;;;;;;;-141.50;100.00;63355.56;5332890;26;20001;-82
2024/04/26 00:46:47;;;;;;;2.85;1.38;;;;;;;-141.50;100.00;63355.56;5364360;26;20016;-81
2024/04/26 00:49:16;;;;;;;2.47;1.20;;;;;;;-141.50;100.00;63355.56;5367803;26;20034;-82
2024/04/26 00:51:47;;;;;;;2.67;1.13;;;;;;;-141.50;100.00;63355.56;5353584;26;20021;-80
2024/04/26 00:54:20;;;;;;;5.40;1.38;;;;;;;-141.50;100.00;63355.56;5364998;26;20491;-83
2024/04/26 00:56:50;;;;;;;7.10;1.30;;;;;;;-141.50;100.00;63355.56;5356580;26;20027;-82
2024/04/26 00:59:18;;;;;;;5.95;1.42;;;;;;;-141.50;100.00;63355.56;5373621;26;20024;-82
2024/04/26 01:01:52;;;;;;;4.47;1.23;;;;;;;-141.50;100.00;63355.56;5375613;26;20044;-84
2024/04/26 01:04:23;;;;;;;3.75;1.30;;;;;;;-141.50;100.00;63355.56;5348408;26;20019;-82
2024/04/26 01:06:51;;;;;;;3.33;1.23;;;;;;;-141.50;100.00;63355.56;5372397;26;20012;-82
2024/04/26 01:09:19;;;;;;;5.07;1.50;;;;;;;-141.50;100.00;63355.56;5408760;26;20637;-83
2024/04/26 01:11:46;;;;;;;3.38;1.33;;;;;;;-141.50;100.00;63355.56;5380291;26;20008;-80
2024/04/26 01:14:13;;;;;;;6.38;1.40;;;;;;;-141.50;100.00;63355.56;5344940;26;20012;-80
2024/04/26 01:16:41;;;;;;;3.35;1.30;;;;;;;-141.50;100.00;63355.56;5404698;26;20026;-81
2024/04/26 01:19:11;;;;;;;3.30;1.00;;;;;;;-141.50;100.00;63355.56;5377918;26;20015;-82
2024/04/26 01:21:40;;;;;;;5.70;1.50;;;;;;;-141.50;100.00;63355.56;5369664;26;20008;-82
2024/04/26 01:24:08;;;;;;;2.75;1.38;;;;;;;-141.50;100.00;63355.56;5337782;26;19997;-79
2024/04/26 01:26:35;;;;;;;2.03;0.90;;;;;;;-141.50;100.00;63355.56;5380304;26;20020;-81
2024/04/26 01:29:02;;;;;;;2.33;1.05;;;;;;;-141.50;100.00;63355.56;5380583;26;20004;-83
2024/04/26 01:31:30;;;;;;;4.68;1.33;;;;;;;-141.50;100.00;63355.56;5346094;26;20021;-83
2024/04/26 01:33:57;;;;;;;5.15;1.10;;;;;;;-141.50;100.00;63355.56;5405363;26;20008;-80
2024/04/26 01:36:24;;;;;;;3.90;1.33;;;;;;;-141.50;100.00;63355.56;5351766;26;20456;-82
2024/04/26 01:38:51;;;;;;;2.35;1.08;;;;;;;-141.50;100.00;63355.56;5350416;26;20001;-80
2024/04/26 01:41:19;;;;;;;3.60;1.40;;;;;;;-141.50;100.00;63355.56;5399689;26;20456;-84
2024/04/26 01:43:50;;;;;;;3.30;1.35;;;;;;;-141.50;100.00;63355.56;5370901;26;20040;-80
2024/04/26 01:46:26;;;;;;;2.30;1.38;;;;;;;-141.50;100.00;63355.56;5283320;26;20019;-80
2024/04/26 01:48:55;;;;;;;1.75;1.08;;;;;;;-141.50;100.00;63355.56;5346779;26;20008;-80
2024/04/26 01:51:22;;;;;;;3.40;1.30;;;;;;;-141.50;100.00;63355.56;5379032;26;20015;-80
2024/04/26 01:53:49;;;;;;;3.03;1.23;;;;;;;-141.50;100.00;63355.56;5377996;26;20015;-82
2024/04/26 01:56:17;;;;;;;4.85;1.50;;;;;;;-141.50;100.00;63355.56;5359737;26;20035;-82
2024/04/26 01:58:47;;;;;;;2.63;1.30;;;;;;;-141.50;100.00;63355.56;5371178;26;20005;-83
2024/04/26 02:01:16;;;;;;;3.58;1.30;;;;;;;-141.50;100.00;63355.56;5374167;26;20058;-82
2024/04/26 02:03:44;;;;;;;4.15;1.55;;;;;;;-141.50;100.00;63355.56;5371338;26;20000;-82
2024/04/26 02:06:11;;;;;;;4.00;1.30;;;;;;;-141.50;100.00;63355.56;5361409;26;20008;-82
2024/04/26 02:08:38;;;;;;;2.45;1.30;;;;;;;-141.50;100.00;63355.56;5369099;26;20016;-81
2024/04/26 02:11:05;;;;;;;3.83;1.30;;;;;;;-141.50;100.00;63355.56;5373134;26;20012;-80
2024/04/26 02:13:35;;;;;;;3.67;1.52;;;;;;;-141.50;100.00;63355.56;5368388;26;20004;-84
2024/04/26 02:16:03;;;;;;;3.88;1.25;;;;;;;-141.50;100.00;63355.56;5374952;26;20705;-83
2024/04/26 02:18:30;;;;;;;8.98;1.48;;;;;;;-141.50;100.00;63355.56;5353130;26;20350;-82
2024/04/26 02:20:57;;;;;;;5.47;1.80;;;;;;;-141.50;100.00;63355.56;5370910;26;20077;-82
2024/04/26 02:23:25;;;;;;;3.08;1.35;;;;;;;-141.50;100.00;63355.56;5367516;26;20019;-84
2024/04/26 02:25:52;;;;;;;2.80;1.40;;;;;;;-141.50;100.00;63355.56;5406593;26;20018;-83
2024/04/26 02:28:19;;;;;;;3.30;1.20;;;;;;;-141.50;100.00;63355.56;5390903;26;20008;-82
2024/04/26 02:30:46;;;;;;;4.28;1.52;;;;;;;-141.50;100.00;63355.56;5361537;26;20481;-82
2024/04/26 02:33:13;;;;;;;2.60;1.48;;;;;;;-141.50;100.00;63355.56;5335837;26;20019;-84
2024/04/26 02:35:42;;;;;;;3.13;1.60;;;;;;;-141.50;100.00;63355.56;5376403;26;20000;-83
2024/04/26 02:38:09;;;;;;;4.28;1.67;;;;;;;-141.50;100.00;63355.56;5350155;26;20016;-83
2024/04/26 02:40:37;;;;;;;3.92;1.48;;;;;;;-141.50;100.00;63355.56;5377059;26;20015;-81
2024/04/26 02:43:06;;;;;;;3.85;1.45;;;;;;;-141.50;100.00;63355.56;5404096;26;20015;-82
2024/04/26 02:45:33;;;;;;;5.25;1.38;;;;;;;-141.50;100.00;63355.56;5365312;26;20016;-84
2024/04/26 02:48:01;;;;;;;6.32;1.30;;;;;;;-141.50;100.00;63355.56;5393083;26;20004;-82
2024/04/26 02:50:28;;;;;;;2.60;1.45;;;;;;;-141.50;100.00;63355.56;5320787;26;20060;-80
2024/04/26 02:52:55;;;;;;;4.05;1.63;;;;;;;-141.50;100.00;63355.56;5367369;26;20004;-83
2024/04/26 02:55:24;;;;;;;4.90;1.58;;;;;;;-141.50;100.00;63355.56;5380087;26;20004;-84
2024/04/26 02:57:51;;;;;;;4.15;1.40;;;;;;;-141.50;100.00;63355.56;5369639;26;20017;-82
2024/04/26 03:00:18;;;;;;;4.75;1.60;;;;;;;-141.50;100.00;63355.56;5376863;26;20029;-81
2024/04/26 03:02:46;;;;;;;3.67;1.30;;;;;;;-141.50;100.00;63355.56;5379196;26;20059;-83
2024/04/26 03:05:14;;;;;;;4.55;1.48;;;;;;;-141.50;100.00;63355.56;5369413;26;20000;-83
2024/04/26 03:07:41;;;;;;;5.07;1.30;;;;;;;-141.50;100.00;63355.56;5375343;26;20406;-83
2024/04/26 03:10:08;;;;;;;4.93;1.38;;;;;;;-141.50;100.00;63355.56;5375645;26;20004;-83
2024/04/26 03:12:36;;;;;;;3.35;1.70;;;;;;;-141.50;100.00;63355.56;5365709;26;20403;-82
2024/04/26 03:15:03;;;;;;;3.00;1.50;;;;;;;-141.50;100.00;63355.56;5371124;26;20126;-81
2024/04/26 03:17:31;;;;;;;4.80;1.73;;;;;;;-141.50;100.00;63355.56;5376510;26;20363;-82
2024/04/26 03:19:58;;;;;;;4.15;1.58;;;;;;;-141.50;100.00;63355.56;5365139;26;20012;-84
2024/04/26 03:22:25;;;;;;;3.38;1.40;;;;;;;-141.50;100.00;63355.56;5361324;26;20015;-84
2024/04/26 03:24:53;;;;;;;3.67;1.40;;;;;;;-141.50;100.00;63355.56;5378180;26;20000;-81
2024/04/26 03:27:20;;;;;;;3.78;1.45;;;;;;;-141.50;100.00;63355.56;5362450;26;20047;-83
2024/04/26 03:29:47;;;;;;;7.65;1.73;;;;;;;-141.50;100.00;63355.56;5349360;26;20071;-82
2024/04/26 03:32:14;;;;;;;4.07;1.50;;;;;;;-141.50;100.00;63355.56;5349790;26;20040;-82
2024/04/26 03:34:42;;;;;;;4.25;1.80;;;;;;;-141.50;100.00;63355.56;5320190;26;20009;-83
2024/04/26 03:37:09;;;;;;;4.20;1.60;;;;;;;-141.50;100.00;63355.56;5356079;26;20666;-84
2024/04/26 03:39:36;;;;;;;1.88;1.40;;;;;;;-141.50;100.00;63355.56;5382595;26;20073;-83
2024/04/26 03:42:03;;;;;;;3.78;1.40;;;;;;;-141.50;100.00;63355.56;5350343;26;20001;-82
2024/04/26 03:44:32;;;;;;;2.95;1.33;;;;;;;-141.50;100.00;63355.56;5362507;26;20032;-84
2024/04/26 03:46:59;;;;;;;3.13;1.55;;;;;;;-141.50;100.00;63355.56;5372158;26;20004;-82
2024/04/26 03:49:26;;;;;;;2.58;1.45;;;;;;;-141.50;100.00;63355.56;5355098;26;19996;-81
2024/04/26 03:51:54;;;;;;;5.18;1.60;;;;;;;-141.50;100.00;63355.56;5342966;26;20049;-79
2024/04/26 03:54:21;;;;;;;3.13;1.58;;;;;;;-141.50;100.00;63355.56;5342033;26;20000;-81
2024/04/26 03:56:48;;;;;;;3.47;1.50;;;;;;;-141.50;100.00;63355.56;5371752;26;20011;-81
2024/04/26 03:59:15;;;;;;;5.00;1.63;;;;;;;-141.50;100.00;63355.56;5362009;26;20008;-78
2024/04/26 04:01:48;;;;;;;3.80;1.45;;;;;;;-141.50;100.00;63355.56;5397688;26;21638;-82
2024/04/26 04:04:19;;;;;;;4.00;1.52;;;;;;;-141.50;100.00;63355.56;5332957;26;20062;-83
2024/04/26 04:06:46;;;;;;;4.90;1.80;;;;;;;-141.50;100.00;63355.56;5366082;26;20359;-83
2024/04/26 04:09:13;;;;;;;6.93;1.80;;;;;;;-141.50;100.00;63355.56;5355052;26;20009;-84
2024/04/26 04:11:41;;;;;;;2.70;1.67;;;;;;;-141.50;100.00;63355.56;5352691;26;20013;-82
2024/04/26 04:14:09;;;;;;;4.75;1.88;;;;;;;-141.50;100.00;63355.56;5368608;26;20018;-80
2024/04/26 04:16:36;;;;;;;6.78;1.67;;;;;;;-141.50;100.00;63355.56;5367861;26;20031;-82
2024/04/26 04:19:03;;;;;;;8.30;1.90;;;;;;;-141.50;100.00;63355.56;5373837;26;20014;-84
2024/04/26 04:21:31;;;;;;;4.53;1.70;;;;;;;-141.50;100.00;63355.56;5369845;26;20397;-82
2024/04/26 04:23:58;;;;;;;7.25;1.83;;;;;;;-141.50;100.00;63355.56;5369100;26;20349;-81
2024/04/26 04:26:25;;;;;;;3.63;2.10;;;;;;;-141.50;100.00;63355.56;5374238;26;20483;-83
2024/04/26 04:28:52;;;;;;;4.30;2.10;;;;;;;-141.50;100.00;63355.56;5376411;26;20077;-81
2024/04/26 04:31:19;;;;;;;7.10;2.38;;;;;;;-141.50;100.00;63355.56;5335444;26;20045;-80
2024/04/26 04:33:46;;;;;;;6.38;2.10;;;;;;;-141.50;100.00;63355.56;5361505;26;19999;-77
2024/04/26 04:36:14;;;;;;;4.18;1.92;;;;;;;-141.50;100.00;63355.56;5355751;26;20009;-82
2024/04/26 04:38:42;;;;;;;9.60;2.42;;;;;;;-141.50;100.00;63355.56;5362869;26;20018;-79
2024/04/26 04:41:11;;;;;;;4.65;2.42;;;;;;;-141.50;100.00;63355.56;5372023;26;20040;-81
2024/04/26 04:43:39;;;;;;;6.22;2.30;;;;;;;-141.50;100.00;63355.56;5372932;26;20040;-82
2024/04/26 04:46:06;;;;;;;6.07;2.38;;;;;;;-141.50;100.00;63355.56;5371339;26;20010;-83
2024/04/26 04:48:33;;;;;;;8.98;2.13;;;;;;;-141.50;100.00;63355.56;5366671;26;20006;-83
2024/04/26 04:51:00;;;;;;;4.88;2.20;;;;;;;-141.50;100.00;63355.56;5374734;26;20001;-81
2024/04/26 04:53:28;;;;;;;7.80;2.55;;;;;;;-141.50;100.00;63355.56;5361200;26;20000;-80
2024/04/26 04:55:55;;;;;;;4.20;2.17;;;;;;;-141.50;100.00;63355.56;5376691;26;20016;-80
2024/04/26 04:58:22;;;;;;;3.90;2.17;;;;;;;-141.50;100.00;63355.56;5357011;26;20020;-83
2024/04/26 05:00:51;;;;;;;5.63;2.58;;;;;;;-141.50;100.00;63355.56;5349461;26;20004;-83
2024/04/26 05:03:18;;;;;;;3.67;2.30;;;;;;;-141.50;100.00;63355.56;5340652;26;20035;-81
2024/04/26 05:05:46;;;;;;;5.07;2.50;;;;;;;-141.50;100.00;63355.56;5376454;26;20004;-82
2024/04/26 05:08:13;;;;;;;4.13;2.40;;;;;;;-141.50;100.00;63355.56;5373154;26;20038;-85
2024/04/26 05:10:41;;;;;;;4.30;2.22;;;;;;;-141.50;100.00;63355.56;5355334;26;20451;-81
2024/04/26 05:13:08;;;;;;;6.65;2.50;;;;;;;-141.50;100.00;63355.56;5357835;26;20005;-83
2024/04/26 05:15:35;;;;;;;3.50;2.15;;;;;;;-141.50;100.00;63355.56;5375600;26;20012;-80
2024/04/26 05:18:07;;;;;;;6.45;2.63;;;;;;;-141.50;100.00;63355.56;5361851;26;20015;-80
2024/04/26 05:20:41;;;;;;;7.53;2.83;;;;;;;-141.50;100.00;63355.56;5292333;26;20015;-84
2024/04/26 05:23:08;;;;;;;6.65;2.35;;;;;;;-141.50;100.00;63355.56;5371566;26;20019;-83
2024/04/26 05:25:35;;;;;;;5.90;2.58;;;;;;;-141.50;100.00;63355.56;5371061;26;20056;-82
2024/04/26 05:28:02;;;;;;;7.68;2.58;;;;;;;-141.50;100.00;63355.56;5363511;26;20034;-81
2024/04/26 05:30:29;;;;;;;6.35;2.40;;;;;;;-141.50;100.00;63355.56;5349755;26;20237;-84
2024/04/26 05:33:02;;;;;;;4.28;2.30;;;;;;;-141.50;100.00;63355.56;5370781;26;20005;-79
2024/04/26 05:35:37;;;;;;;5.68;1.98;;;;;;;-141.50;100.00;63355.56;5351219;26;20411;-80
2024/04/26 05:38:04;;;;;;;3.97;2.15;;;;;;;-141.50;100.00;63355.56;5353530;26;20003;-81
2024/04/26 05:40:31;;;;;;;7.90;2.22;;;;;;;-141.50;100.00;63355.56;5387455;26;20121;-80
2024/04/26 05:42:59;;;;;;;6.43;2.28;;;;;;;-141.50;100.00;63355.56;5360660;26;20013;-83
2024/04/26 05:45:26;;;;;;;7.32;3.10;;;;;;;-141.50;100.00;63355.56;5357598;26;20073;-83
2024/04/26 05:47:53;;;;;;;5.78;2.63;;;;;;;-141.50;100.00;63355.56;5364171;26;20004;-80
2024/04/26 05:50:20;;;;;;;7.10;2.60;;;;;;;-141.50;100.00;63355.56;5363537;26;20020;-82
2024/04/26 05:52:47;;;;;;;6.75;2.70;;;;;;;-141.50;100.00;63355.56;5339280;26;20017;-81
2024/04/26 05:55:14;;;;;;;4.80;2.13;;;;;;;-141.50;100.00;63355.56;5372113;26;20015;-80
2024/04/26 05:57:41;;;;;;;8.00;2.25;;;;;;;-141.50;100.00;63355.56;5367542;26;20091;-82
2024/04/26 06:00:08;;;;;;;7.40;2.58;;;;;;;-141.50;100.00;63355.56;5332774;26;20024;-79
2024/04/26 06:02:37;;;;;;;4.68;2.50;;;;;;;-141.50;100.00;63355.56;5311515;26;20009;-84
2024/04/26 06:05:09;;;;;;;3.85;2.25;;;;;;;-141.50;100.00;63355.56;5338062;26;20004;-79
2024/04/26 06:07:36;;;;;;;5.43;2.20;;;;;;;-141.50;100.00;63355.56;5341039;26;20449;-81
2024/04/26 06:10:05;;;;;;;6.53;2.40;;;;;;;-141.50;100.00;63355.56;5342227;26;20005;-81
2024/04/26 06:12:33;;;;;;;4.50;2.10;;;;;;;-141.50;100.00;63355.56;5329669;26;20535;-81
2024/04/26 06:15:00;;;;;;;7.20;2.72;;;;;;;-141.50;100.00;63355.56;5334668;26;20005;-81
2024/04/26 06:17:27;;;;;;;5.25;2.45;;;;;;;-141.50;100.00;63355.56;5341120;26;20374;-82
2024/04/26 06:19:56;;;;;;;4.10;2.13;;;;;;;-141.50;100.00;63355.56;5335682;26;20023;-80
2024/04/26 06:22:24;;;;;;;5.75;2.40;;;;;;;-141.50;100.00;63355.56;5367583;26;20021;-83
2024/04/26 06:24:51;;;;;;;10.48;2.60;;;;;;;-141.50;100.00;63355.56;5372713;26;20050;-79
2024/04/26 06:27:18;;;;;;;6.40;2.67;;;;;;;-141.50;100.00;63355.56;5381740;26;20469;-84
2024/04/26 06:29:45;;;;;;;4.97;2.42;;;;;;;-141.50;100.00;63355.56;5370738;26;20430;-81
2024/04/26 06:32:13;;;;;;;6.97;3.03;;;;;;;-141.50;100.00;63355.56;5377502;26;20209;-81
2024/04/26 06:34:40;;;;;;;5.78;2.33;;;;;;;-141.50;100.00;63355.56;5366896;26;20008;-85
2024/04/26 06:37:10;;;;;;;4.13;2.28;;;;;;;-141.50;100.00;63355.56;5378763;26;20447;-81
2024/04/26 06:39:37;;;;;;;4.85;1.90;;;;;;;-141.50;100.00;63355.56;5369891;26;20009;-81
2024/04/26 06:42:04;;;;;;;3.60;2.05;;;;;;;-141.50;100.00;63355.56;5364860;26;20004;-82
2024/04/26 06:44:32;;;;;;;7.20;2.17;;;;;;;-141.50;100.00;63355.56;5370281;26;20009;-82
2024/04/26 06:46:59;;;;;;;3.70;2.05;;;;;;;-141.50;100.00;63355.56;5338865;26;20336;-81
2024/04/26 06:49:27;;;;;;;8.10;2.25;;;;;;;-141.50;100.00;63355.56;5328791;26;20048;-81
2024/04/26 06:51:54;;;;;;;7.57;2.42;;;;;;;-141.50;100.00;63355.56;5373733;26;20005;-79
2024/04/26 06:54:21;;;;;;;5.03;2.03;;;;;;;-141.50;100.00;63355.56;5344618;26;20041;-83
2024/04/26 06:56:48;;;;;;;6.25;2.13;;;;;;;-141.50;100.00;63355.56;5342974;26;20504;-84
2024/04/26 06:59:16;;;;;;;4.65;1.98;;;;;;;-141.50;100.00;63355.56;5341909;26;20005;-81
2024/04/26 07:01:46;;;;;;;5.20;2.05;;;;;;;-141.50;100.00;63355.56;5321527;26;20527;-80
2024/04/26 07:04:13;;;;;;;4.82;1.77;;;;;;;-141.50;100.00;63355.56;5360751;26;20403;-83
2024/04/26 07:06:41;;;;;;;6.05;1.92;;;;;;;-141.50;100.00;63355.56;5373366;26;20073;-82
2024/04/26 07:09:08;;;;;;;5.65;2.10;;;;;;;-141.50;100.00;63355.56;5362408;26;20385;-84
2024/04/26 07:11:35;;;;;;;3.92;1.73;;;;;;;-141.50;100.00;63355.56;5363238;26;20079;-84
2024/04/26 07:14:04;;;;;;;6.65;1.80;;;;;;;-141.50;100.00;63355.56;5374454;26;20051;-82
2024/04/26 07:16:31;;;;;;;4.88;1.90;;;;;;;-141.50;100.00;63355.56;5358875;26;20005;-82
2024/04/26 07:18:58;;;;;;;6.20;2.00;;;;;;;-141.50;100.00;63355.56;5374722;26;20056;-80
2024/04/26 07:21:25;;;;;;;5.75;1.75;;;;;;;-141.50;100.00;63355.56;5371439;26;20055;-78
2024/04/26 07:23:52;;;;;;;3.95;1.85;;;;;;;-141.50;100.00;63355.56;5349934;26;20443;-79
2024/04/26 07:26:21;;;;;;;3.90;1.70;;;;;;;-141.50;100.00;63355.56;5367996;26;20081;-82
2024/04/26 07:28:49;;;;;;;3.97;1.50;;;;;;;-141.50;100.00;63355.56;5364889;26;20052;-82
2024/04/26 07:31:16;;;;;;;5.47;1.60;;;;;;;-141.50;100.00;63355.56;5373785;26;20022;-81
2024/04/26 07:33:44;;;;;;;6.78;2.05;;;;;;;-141.50;100.00;63355.56;5362523;26;20020;-82
2024/04/26 07:36:11;;;;;;;3.45;1.70;;;;;;;-141.50;100.00;63355.56;5364228;26;20001;-81
2024/04/26 07:38:38;;;;;;;4.28;1.75;;;;;;;-141.50;100.00;63355.56;5356441;26;20420;-84
2024/04/26 07:41:08;;;;;;;4.78;2.00;;;;;;;-141.50;100.00;63355.56;5370130;26;20014;-79
2024/04/26 07:43:39;;;;;;;5.95;1.42;;;;;;;-141.50;100.00;63355.56;5355940;26;20356;-83
2024/04/26 07:46:06;;;;;;;4.57;1.42;;;;;;;-141.50;100.00;63355.56;5363377;26;20020;-82
2024/04/26 07:48:33;;;;;;;4.32;1.50;;;;;;;-141.50;100.00;63355.56;5305690;26;20396;-83
2024/04/26 07:51:04;;;;;;;4.38;1.70;;;;;;;-141.50;100.00;63355.56;5355503;26;20043;-85
2024/04/26 07:53:31;;;;;;;5.90;1.70;;;;;;;-141.50;100.00;63355.56;5338119;26;20098;-83
2024/04/26 07:56:04;;;;;;;4.25;1.42;;;;;;;-141.50;100.00;63355.56;5365989;26;20080;-84
2024/04/26 07:58:31;;;;;;;4.47;1.70;;;;;;;-141.50;100.00;63355.56;5391104;26;20004;-81
2024/04/26 08:00:58;;;;;;;6.45;1.40;;;;;;;-141.50;100.00;63355.56;5333622;26;20023;-81
2024/04/26 08:03:26;;;;;;;5.55;1.75;;;;;;;-141.50;100.00;63355.56;5363493;26;20020;-84
2024/04/26 08:06:18;;;;;;;7.65;1.63;;;;;;;-141.50;100.00;63355.56;5366082;26;20052;-85
2024/04/26 08:08:48;;;;;;;8.70;1.60;;;;;;;-141.50;100.00;63355.56;5357630;26;20040;-84
2024/04/26 08:11:16;;;;;;;6.30;1.85;;;;;;;-141.50;100.00;63355.56;5377479;26;20052;-83
2024/04/26 08:13:43;;;;;;;3.55;1.27;;;;;;;-141.50;100.00;63355.56;5353502;26;20407;-82
2024/04/26 08:16:11;;;;;;;8.68;1.67;;;;;;;-141.50;100.00;63355.56;5366793;26;19997;-83
2024/04/26 08:18:41;;;;;;;8.45;1.92;;;;;;;-141.50;100.00;63355.56;5378911;26;20005;-83
2024/04/26 08:21:10;;;;;;;4.72;1.48;;;;;;;-141.50;100.00;63355.56;5357693;26;20046;-84
2024/04/26 08:23:39;;;;;;;3.75;1.40;;;;;;;-141.50;100.00;63355.56;5374341;26;20000;-84
2024/04/26 08:26:06;;;;;;;5.72;1.70;;;;;;;-141.50;100.00;63355.56;5360052;26;20058;-85
2024/04/26 08:28:35;;;;;;;7.15;1.60;;;;;;;-141.50;100.00;63355.56;5385262;26;20024;-82
2024/04/26 08:31:03;;;;;;;7.40;1.83;;;;;;;-141.50;100.00;63355.56;5331783;26;20020;-83
2024/04/26 08:33:37;;;;;;;6.38;1.70;;;;;;;-141.50;100.00;63355.56;5361799;26;19996;-82
2024/04/26 08:36:07;;;;;;;3.58;1.40;;;;;;;-141.50;100.00;63355.56;5366026;26;20011;-83
2024/04/26 08:38:35;;;;;;;5.07;1.83;;;;;;;-141.50;100.00;63355.56;5361958;26;20081;-82
2024/04/26 08:41:03;;;;;;;4.63;1.60;;;;;;;-141.50;100.00;63355.56;5344873;26;20004;-81
2024/04/26 08:43:31;;;;;;;5.03;1.27;;;;;;;-141.50;100.00;63355.56;5372481;26;20005;-83
2024/04/26 08:45:59;;;;;;;7.45;2.05;;;;;;;-141.50;100.00;63355.56;5368024;26;20015;-83
2024/04/26 08:48:28;;;;;;;3.67;1.40;;;;;;;-141.50;100.00;63355.56;5336226;26;20028;-82
2024/04/26 08:50:56;;;;;;;6.75;1.60;;;;;;;-141.50;100.00;63355.56;5324364;26;20027;-82
2024/04/26 08:53:26;;;;;;;4.57;1.30;;;;;;;-141.50;100.00;63355.56;5340878;26;20013;-80
2024/04/26 08:55:53;;;;;;;4.47;1.50;;;;;;;-141.50;100.00;63355.56;5378947;26;20004;-83
2024/04/26 08:58:21;;;;;;;6.10;1.38;;;;;;;-141.50;100.00;63355.56;5370588;26;20015;-82
2024/04/26 09:00:50;;;;;;;2.72;1.13;;;;;;;-141.50;100.00;63355.56;5363368;26;20345;-83
2024/04/26 09:03:18;;;;;;;3.78;1.20;;;;;;;-141.50;100.00;63355.56;5346364;26;20008;-82
2024/04/26 09:05:49;;;;;;;5.93;1.48;;;;;;;-141.50;100.00;63355.56;5355053;26;20004;-83
2024/04/26 09:08:16;;;;;;;6.25;1.30;;;;;;;-141.50;100.00;63355.56;5370709;26;20492;-83
2024/04/26 09:10:43;;;;;;;2.35;1.17;;;;;;;-141.50;100.00;63355.56;5371613;26;20045;-82
2024/04/26 09:13:10;;;;;;;4.30;1.23;;;;;;;-141.50;100.00;63355.56;5373741;26;20008;-82
2024/04/26 09:15:37;;;;;;;4.47;1.33;;;;;;;-141.50;100.00;63355.56;5365502;26;20477;-82
2024/04/26 09:18:06;;;;;;;5.88;1.10;;;;;;;-141.50;100.00;63355.56;5364044;26;19996;-82
2024/04/26 09:20:36;;;;;;;6.72;1.55;;;;;;;-141.50;100.00;63355.56;5357963;26;20036;-81
2024/04/26 09:23:07;;;;;;;6.57;1.83;;;;;;;-141.50;100.00;63355.56;5304767;26;20001;-84
2024/04/26 09:25:34;;;;;;;3.75;1.25;;;;;;;-141.50;100.00;63355.56;5309174;26;20017;-81
2024/04/26 09:28:04;;;;;;;2.30;1.08;;;;;;;-141.50;100.00;63355.56;5337047;26;20074;-83
2024/04/26 09:30:46;;;;;;;6.15;1.38;;;;;;;-141.50;100.00;63355.56;5335469;26;20021;-82
2024/04/26 09:33:21;;;;;;;5.70;1.20;;;;;;;-141.50;100.00;63355.56;5376196;26;20000;-85
2024/04/26 09:35:49;;;;;;;3.92;1.20;;;;;;;-141.50;100.00;63355.56;5358160;26;20027;-81
2024/04/26 09:38:20;;;;;;;4.35;1.30;;;;;;;-141.50;100.00;63355.56;5342474;26;20092;-80
2024/04/26 09:40:48;;;;;;;3.03;1.17;;;;;;;-141.50;100.00;63355.56;5375073;26;20373;-82
2024/04/26 09:43:18;;;;;;;7.18;1.50;;;;;;;-141.50;100.00;63355.56;5373987;26;20008;-81
2024/04/26 09:45:46;;;;;;;4.45;1.33;;;;;;;-141.50;100.00;63355.56;5365066;26;20005;-81
2024/04/26 09:48:18;;;;;;;2.92;1.42;;;;;;;-141.50;100.00;63355.56;5355469;26;19992;-81
2024/04/26 09:50:50;;;;;;;4.93;1.40;;;;;;;-141.50;100.00;63355.56;5370539;26;20044;-81
2024/04/26 09:53:19;;;;;;;3.80;1.40;;;;;;;-141.50;100.00;63355.56;5375045;26;20019;-81
2024/04/26 09:55:46;;;;;;;2.92;1.13;;;;;;;-141.50;100.00;63355.56;5353067;26;20005;-85
2024/04/26 09:58:14;;;;;;;2.35;1.10;;;;;;;-141.50;100.00;63355.56;5377540;26;20000;-84
2024/04/26 10:00:42;;;;;;;2.72;1.05;;;;;;;-141.50;100.00;63355.56;5369977;26;20016;-80
2024/04/26 10:03:11;;;;;;;6.18;1.60;;;;;;;-141.50;100.00;63355.56;5373670;26;20018;-81
2024/04/26 10:05:39;;;;;;;2.40;1.30;;;;;;;-141.50;100.00;63355.56;5394519;26;20016;-82
2024/04/26 10:08:07;;;;;;;6.32;1.52;;;;;;;-141.50;100.00;63355.56;5360662;26;19997;-79
2024/04/26 10:10:35;;;;;;;6.22;1.67;;;;;;;-141.50;100.00;63355.56;5360211;26;20493;-82
2024/04/26 10:13:03;;;;;;;5.70;1.45;;;;;;;-141.50;100.00;63355.56;5371173;26;20217;-81
2024/04/26 10:15:31;;;;;;;4.50;1.75;;;;;;;-141.50;100.00;63355.56;5361016;26;20009;-82
2024/04/26 10:17:59;;;;;;;3.88;1.20;;;;;;;-141.50;100.00;63355.56;5360157;26;20019;-82
2024/04/26 10:20:27;;;;;;;4.03;1.40;;;;;;;-141.50;100.00;63355.56;5360012;26;20635;-82
2024/04/26 10:23:05;;;;;;;7.32;1.40;;;;;;;-141.50;100.00;63355.56;5366601;26;20013;-83
2024/04/26 10:25:32;;;;;;;4.15;1.30;;;;;;;-141.50;100.00;63355.56;5354009;26;20008;-82
2024/04/26 10:28:11;;;;;;;5.25;1.20;;;;;;;-141.50;100.00;63355.56;5370989;26;20356;-83
2024/04/26 10:30:46;;;;;;;4.40;1.35;;;;;;;-141.50;100.00;63355.56;5353926;26;20016;-82
2024/04/26 10:33:14;;;;;;;4.63;1.27;;;;;;;-141.50;100.00;63355.56;5356761;26;20105;-83
2024/04/26 10:35:41;;;;;;;5.55;1.70;;;;;;;-141.50;100.00;63355.56;5373602;26;20238;-82
2024/04/26 10:38:09;;;;;;;6.10;1.25;;;;;;;-141.50;100.00;63355.56;5342541;26;20001;-83
2024/04/26 10:40:49;;;;;;;4.68;1.30;;;;;;;-141.50;100.00;63355.56;5366845;26;20023;-82
2024/04/26 10:43:27;;;;;;;4.50;1.40;;;;;;;-141.50;100.00;63355.56;5370742;26;20337;-83
2024/04/26 10:45:56;;;;;;;4.07;1.00;;;;;;;-141.50;100.00;63355.56;5358952;26;20507;-81
2024/04/26 10:48:32;;;;;;;2.92;1.20;;;;;;;-141.50;100.00;63355.56;5363562;26;20005;-81
2024/04/26 10:51:11;;;;;;;3.38;1.40;;;;;;;-141.50;100.00;63355.56;5370952;26;20004;-80
2024/04/26 10:53:41;;;;;;;4.80;1.30;;;;;;;-141.50;100.00;63355.56;5351376;26;20516;-81
2024/04/26 10:56:18;;;;;;;5.25;1.20;;;;;;;-141.50;100.00;63355.56;5366592;26;20371;-81
2024/04/26 10:58:46;;;;;;;3.97;1.27;;;;;;;-141.50;100.00;63355.56;5365534;26;20044;-82
2024/04/26 11:01:17;;;;;;;6.38;1.50;;;;;;;-141.50;100.00;63355.56;5361200;26;20012;-82
2024/04/26 11:04:03;;;;;;;3.55;1.17;;;;;;;-141.50;100.00;63355.56;5352724;26;20454;-82
2024/04/26 11:06:33;;;;;;;3.00;1.10;;;;;;;-141.50;100.00;63355.56;5370402;26;20016;-80
2024/04/26 11:09:07;;;;;;;4.88;1.35;;;;;;;-141.50;100.00;63355.56;5363054;26;20007;-83
2024/04/26 11:11:35;;;;;;;6.55;1.40;;;;;;;-141.50;100.00;63355.56;5356691;26;20019;-80
2024/04/26 11:14:02;;;;;;;4.35;1.40;;;;;;;-141.50;100.00;63355.56;5351791;26;20357;-81
2024/04/26 11:16:31;;;;;;;3.13;1.30;;;;;;;-141.50;100.00;63355.56;5366644;26;20008;-82